createdAt,value
2022-09-23T00:18:46.657Z,97.13
2022-09-23T00:21:19.577Z,97.42
2022-09-23T00:23:46.773Z,98.58
2022-09-23T00:26:16.341Z,99.88
2022-09-23T00:28:44.021Z,100.00
2022-09-23T00:31:16.832Z,100.00
2022-09-23T00:33:43.626Z,95.94
2022-09-23T00:36:12.254Z,98.82
2022-09-23T00:38:41.654Z,99.72
2022-09-23T00:41:10.542Z,98.34
2022-09-23T00:43:50.289Z,97.82
2022-09-23T00:46:35.748Z,98.16
2022-09-23T00:49:10.796Z,98.39
2022-09-23T00:51:43.754Z,96.76
2022-09-23T00:54:11.631Z,95.49
2022-09-23T00:56:39.864Z,96.83
2022-09-23T00:59:09.835Z,96.16
2022-09-23T01:01:38.789Z,95.47
2022-09-23T01:04:25.455Z,93.68
2022-09-23T01:06:55.001Z,94.16
2022-09-23T01:09:27.195Z,94.36
2022-09-23T01:12:32.805Z,93.31
2022-09-23T01:15:29.837Z,94.21
2022-09-23T01:18:39.445Z,96.57
2022-09-23T01:21:29.222Z,97.52
2022-09-23T01:24:11.034Z,97.78
2022-09-23T01:26:41.046Z,96.70
2022-09-23T01:29:44.496Z,94.28
2022-09-23T01:32:38.966Z,94.07
2022-09-23T01:35:25.266Z,92.42
2022-09-23T01:38:10.435Z,93.59
2022-09-23T01:41:07.968Z,96.48
2022-09-23T01:43:48.487Z,93.04
2022-09-23T01:46:34.066Z,90.80
2022-09-23T01:49:15.655Z,95.50
2022-09-23T01:51:51.978Z,93.77
2022-09-23T01:54:37.930Z,91.47
2022-09-23T01:57:15.645Z,93.08
2022-09-23T01:59:54.142Z,92.50
2022-09-23T02:02:39.279Z,95.04
2022-09-23T02:05:49.716Z,96.56
2022-09-23T02:08:41.487Z,94.87
2022-09-23T02:11:18.595Z,94.98
2022-09-23T02:13:58.292Z,98.14
2022-09-23T02:16:46.200Z,100.00
2022-09-23T02:19:15.658Z,98.94
2022-09-23T02:21:50.212Z,98.66
2022-09-23T02:24:26.207Z,98.07
2022-09-23T02:26:58.918Z,99.54
2022-09-23T02:29:43.217Z,99.18
2022-09-23T02:32:33.241Z,98.00
2022-09-23T02:35:33.793Z,99.24
2022-09-23T02:38:12.319Z,99.53
2022-09-23T02:40:51.011Z,98.63
2022-09-23T02:43:54.317Z,100.00
2022-09-23T02:46:23.229Z,100.00
2022-09-23T02:48:55.528Z,97.69
2022-09-23T02:51:25.364Z,97.07
2022-09-23T02:53:55.896Z,99.59
2022-09-23T02:56:22.375Z,100.00
2022-09-23T02:58:51.863Z,99.42
2022-09-23T03:01:19.013Z,98.83
2022-09-23T03:04:06.856Z,99.66
2022-09-23T03:06:45.509Z,97.03
2022-09-23T03:09:22.441Z,95.40
2022-09-23T03:11:59.295Z,97.29
2022-09-23T03:14:33.294Z,97.48
2022-09-23T03:17:15.998Z,96.48
2022-09-23T03:20:10.037Z,94.23
2022-09-23T03:22:48.621Z,97.13
2022-09-23T03:25:19.707Z,94.96
2022-09-23T03:27:46.126Z,92.33
2022-09-23T03:30:13.778Z,93.47
2022-09-23T03:32:45.520Z,95.90
2022-09-23T03:35:13.368Z,98.50
2022-09-23T03:37:47.133Z,99.07
2022-09-23T03:40:24.010Z,97.58
2022-09-23T03:42:51.442Z,97.69
2022-09-23T03:45:22.006Z,99.40
2022-09-23T03:47:48.457Z,96.84
2022-09-23T03:50:17.293Z,97.53
2022-09-23T03:52:44.373Z,94.78
2022-09-23T03:55:11.507Z,94.77
2022-09-23T03:57:38.368Z,96.82
2022-09-23T04:00:08.109Z,97.25
2022-09-23T04:02:34.700Z,94.53
2022-09-23T04:05:01.271Z,97.71
2022-09-23T04:07:28.177Z,97.54
2022-09-23T04:09:55.080Z,95.70
2022-09-23T04:12:21.591Z,97.65
2022-09-23T04:14:48.309Z,94.29
2022-09-23T04:17:14.959Z,94.87
2022-09-23T04:19:41.428Z,96.00
2022-09-23T04:22:08.726Z,94.37
2022-09-23T04:24:40.220Z,94.20
2022-09-23T04:27:06.659Z,94.44
2022-09-23T04:29:33.130Z,97.23
2022-09-23T04:31:59.757Z,97.51
2022-09-23T04:34:26.284Z,96.85
2022-09-23T04:36:55.776Z,97.25
2022-09-23T04:39:22.399Z,96.82
2022-09-23T04:41:48.827Z,97.28
2022-09-23T04:44:15.783Z,97.15
2022-09-23T04:46:44.050Z,96.81
2022-09-23T04:49:10.949Z,94.72
2022-09-23T04:51:37.503Z,96.00
2022-09-23T04:54:04.094Z,94.95
2022-09-23T04:56:32.746Z,96.17
2022-09-23T05:09:57.771Z,97.80
2022-09-23T05:17:28.651Z,93.26
2022-09-23T05:20:43.520Z,96.71
2022-09-23T05:24:24.874Z,94.71
2022-09-23T05:33:53.285Z,97.32
2022-09-23T05:36:21.589Z,98.24
2022-09-23T05:38:50.070Z,98.13
2022-09-23T05:41:18.228Z,97.13
2022-09-23T05:43:44.970Z,96.77
2022-09-23T05:46:12.613Z,96.48
2022-09-23T05:48:40.303Z,96.88
2022-09-23T05:51:13.075Z,97.11
2022-09-23T05:53:41.726Z,96.45
2022-09-23T05:56:08.291Z,97.71
2022-09-23T05:58:34.967Z,97.17
2022-09-23T06:01:01.596Z,96.22
2022-09-23T06:03:28.231Z,94.43
2022-09-23T06:05:55.478Z,93.55
2022-09-23T06:08:23.299Z,94.56
2022-09-23T06:10:54.328Z,96.92
2022-09-23T06:13:23.775Z,95.67
2022-09-23T06:15:54.044Z,95.19
2022-09-23T06:18:20.811Z,95.87
2022-09-23T06:20:48.264Z,94.45
2022-09-23T06:23:14.933Z,94.87
2022-09-23T06:25:44.065Z,95.97
2022-09-23T06:28:15.385Z,96.76
2022-09-23T06:30:42.765Z,96.90
2022-09-23T06:33:10.185Z,96.22
2022-09-23T06:35:37.044Z,96.09
2022-09-23T06:38:05.222Z,95.71
2022-09-23T06:40:35.683Z,97.89
2022-09-23T06:43:19.497Z,98.05
2022-09-23T06:45:46.299Z,97.22
2022-09-23T06:48:18.174Z,98.27
2022-09-23T06:50:46.914Z,99.83
2022-09-23T06:53:13.653Z,99.02
2022-09-23T06:56:01.140Z,99.99
2022-09-23T06:58:31.849Z,100.00
2022-09-23T07:01:09.665Z,99.85
2022-09-23T07:03:37.121Z,98.93
2022-09-23T07:06:04.327Z,98.95
2022-09-23T07:08:37.964Z,99.00
2022-09-23T07:11:24.155Z,99.83
2022-09-23T07:13:50.936Z,99.29
2022-09-23T07:27:02.604Z,99.67
2022-09-23T07:37:10.746Z,97.58
2022-09-23T08:20:42.594Z,87.58
2022-09-23T08:23:14.412Z,88.73
2022-09-23T08:25:46.859Z,85.73
2022-09-23T08:28:45.741Z,86.97
2022-09-23T08:33:56.066Z,85.25
2022-09-23T09:15:15.675Z,72.10
2022-09-23T09:33:47.218Z,68.42
2022-09-23T09:49:18.841Z,73.79
2022-09-23T10:09:23.115Z,62.33
2022-09-23T10:15:46.839Z,61.40
2022-09-23T10:23:38.543Z,61.97
2022-09-23T11:52:51.232Z,53.28
2022-09-23T11:56:32.832Z,52.81
2022-09-23T11:59:40.209Z,56.99
2022-09-23T12:03:01.717Z,57.08
2022-09-23T12:06:44.355Z,55.06
2022-09-23T12:11:40.362Z,51.57
2022-09-23T12:17:58.732Z,59.92
2022-09-23T12:28:51.885Z,51.68
2022-09-23T12:31:24.710Z,51.10
2022-09-23T12:41:50.231Z,49.79
2022-09-23T12:45:26.269Z,54.87
2022-09-23T12:51:32.095Z,49.88
2022-09-23T12:54:04.472Z,49.81
2022-09-23T12:56:41.152Z,52.74
2022-09-23T13:00:06.464Z,47.69
2022-09-23T13:41:01.417Z,45.49
2022-09-23T13:43:34.723Z,50.90
2022-09-23T14:19:18.615Z,48.95
2022-09-23T14:21:55.977Z,45.32
2022-09-23T14:25:25.177Z,47.42
2022-09-23T14:38:41.833Z,55.92
2022-09-23T14:41:25.186Z,52.10
2022-09-23T14:43:58.889Z,55.70
2022-09-23T14:46:31.077Z,49.30
2022-09-23T14:49:03.080Z,52.54
2022-09-23T14:51:34.053Z,47.93
2022-09-23T14:54:38.095Z,47.10
2022-09-23T14:57:48.980Z,45.67
2022-09-23T15:00:27.771Z,55.16
2022-09-23T15:03:02.620Z,57.00
2022-09-23T15:05:45.005Z,55.18
2022-09-23T15:08:18.699Z,55.67
2022-09-23T15:10:46.265Z,58.22
2022-09-23T15:13:19.891Z,58.11
2022-09-23T15:15:47.250Z,61.42
2022-09-23T15:18:24.955Z,61.71
2022-09-23T15:20:53.839Z,60.04
2022-09-23T15:23:43.318Z,58.67
2022-09-23T15:26:12.491Z,61.29
2022-09-23T15:28:39.418Z,60.29
2022-09-23T15:31:06.237Z,62.21
2022-09-23T15:33:33.733Z,62.54
2022-09-23T15:36:00.282Z,65.41
2022-09-23T15:38:29.671Z,65.36
2022-09-23T15:40:56.441Z,62.94
2022-09-23T15:43:27.070Z,61.76
2022-09-23T15:45:57.756Z,65.55
2022-09-23T15:48:39.608Z,62.97
2022-09-23T15:51:09.393Z,64.86
2022-09-23T15:53:38.143Z,67.31
2022-09-23T15:56:05.341Z,63.00
2022-09-23T15:58:32.484Z,68.74
2022-09-23T16:00:59.905Z,71.36
2022-09-23T16:03:33.557Z,69.23
2022-09-23T16:06:03.367Z,66.84
2022-09-23T16:08:36.532Z,67.29
2022-09-23T16:11:03.384Z,71.54
2022-09-23T16:13:29.930Z,69.75
2022-09-23T16:16:27.930Z,71.72
2022-09-23T16:18:55.364Z,74.11
2022-09-23T16:25:31.848Z,72.69
2022-09-23T16:27:59.019Z,77.42
2022-09-23T16:30:30.761Z,77.06
2022-09-23T16:33:25.261Z,78.00
2022-09-23T16:35:51.936Z,79.59
2022-09-23T16:38:18.440Z,80.82
2022-09-23T16:40:47.861Z,80.51
2022-09-23T16:43:17.122Z,79.38
2022-09-23T16:45:46.595Z,83.83
2022-09-23T16:48:13.704Z,83.80
2022-09-23T16:50:40.600Z,83.38
2022-09-23T16:53:07.179Z,81.64
2022-09-23T16:55:33.716Z,83.85
2022-09-23T17:00:59.677Z,80.50
2022-09-23T17:03:47.366Z,80.34
2022-09-23T17:06:14.644Z,80.71
2022-09-23T17:08:42.577Z,83.06
2022-09-23T17:11:14.461Z,84.33
2022-09-23T17:13:42.420Z,84.30
2022-09-23T17:16:11.959Z,81.80
2022-09-23T17:18:39.148Z,80.67
2022-09-23T17:21:07.865Z,79.38
2022-09-23T17:23:36.554Z,81.70
2022-09-23T17:30:45.875Z,80.24
2022-09-23T17:33:30.021Z,81.65
2022-09-23T17:36:01.263Z,81.23
2022-09-23T17:38:33.663Z,80.64
2022-09-23T17:47:48.040Z,81.44
2022-09-23T17:50:15.001Z,80.63
2022-09-23T17:52:41.696Z,82.00
2022-09-23T17:55:17.136Z,84.47
2022-09-23T17:58:32.056Z,84.90
2022-09-23T18:00:59.441Z,84.38
2022-09-23T18:03:27.946Z,83.06
2022-09-23T18:06:57.268Z,82.49
2022-09-23T18:20:50.475Z,86.72
2022-09-23T21:00:52.879Z,91.69
2022-09-23T21:10:24.944Z,90.41
2022-09-23T21:13:17.894Z,91.16
2022-09-23T21:15:44.897Z,91.79
2022-09-23T21:19:30.199Z,90.70
2022-09-23T21:21:56.019Z,91.92
2022-09-23T21:34:48.014Z,91.34
2022-09-23T21:38:39.143Z,90.69
2022-09-23T21:51:01.231Z,92.08
2022-09-23T22:01:29.087Z,90.49
2022-09-23T22:04:42.474Z,90.94
2022-09-23T22:10:02.230Z,89.75
2022-09-23T22:12:31.827Z,88.88
2022-09-23T22:15:00.778Z,88.60
2022-09-23T22:17:31.685Z,88.45
2022-09-23T22:20:02.262Z,89.11
2022-09-23T22:22:29.053Z,89.40
2022-09-23T22:24:55.829Z,89.81
2022-09-23T22:27:24.008Z,91.58
2022-09-23T22:30:09.506Z,89.36
2022-09-23T22:32:45.024Z,90.34
2022-09-23T22:35:19.869Z,90.11
2022-09-23T22:37:48.119Z,90.08
2022-09-23T22:40:15.971Z,89.74
2022-09-23T22:42:43.840Z,88.41
2022-09-23T22:45:11.894Z,89.16
2022-09-23T22:47:45.822Z,88.69
2022-09-23T22:50:14.653Z,89.98
2022-09-23T22:52:49.481Z,90.41
2022-09-23T22:55:25.568Z,88.79
2022-09-23T22:58:21.233Z,88.90
2022-09-23T23:00:48.683Z,89.71
2022-09-23T23:03:26.822Z,89.86
2022-09-23T23:06:00.021Z,90.41
2022-09-23T23:08:32.631Z,90.16
2022-09-23T23:11:05.440Z,90.04
2022-09-23T23:13:32.976Z,89.62
2022-09-23T23:16:05.003Z,90.67
2022-09-23T23:18:39.666Z,89.65
2022-09-23T23:21:17.437Z,89.13
2022-09-23T23:23:47.701Z,89.25
2022-09-23T23:26:20.876Z,89.97
2022-09-23T23:28:49.781Z,89.33
2022-09-23T23:31:21.658Z,89.37
2022-09-23T23:33:51.856Z,89.07
2022-09-23T23:36:22.120Z,89.78
2022-09-23T23:38:51.795Z,88.99
2022-09-23T23:48:52.173Z,89.83
2022-09-23T23:52:29.639Z,91.58
2022-09-23T23:55:13.203Z,92.65
